Putney, Georgia
Current Conditions -  °F | °C
As of 12:53 PM on Monday 22 Dec 2014 (Local Time) from KABY Reporting Station
Overcast Overcast  
Wind Chill: 53°   Ceiling: 400
Heat Index: 53°   Visibility: 10mi
Dew Point: 51°   Wind: 8mph
Humidity: 93%   Direction: 60°ENE
Pressure: 29.93"   Gusts: NA
Location:  31.47°N, 84.12°W
Report Text: KABY 221753Z 06007KT 10SM OVC004 12/11 A2993 RMK AO2 SLP135 60014 T01170106 10122 20089 58035
Loading
Personal Weather Stations






























Interactive Weather Map New forecast layout! Learn more

10-Day Weather Forecast

Advertisements
Track Severe Weather on mobile